sensor_id;sensor_type;location;lat;lon;timestamp;pressure;altitude;pressure_sealevel;temperature;humidity
32324;BME280;25666;44.350;9.222;2024-02-26T00:02:26;100745.88;;;11.52;100.00
32324;BME280;25666;44.350;9.222;2024-02-26T00:04:52;100742.91;;;11.45;100.00
32324;BME280;25666;44.350;9.222;2024-02-26T00:07:17;100745.31;;;11.47;100.00
32324;BME280;25666;44.350;9.222;2024-02-26T00:09:43;100739.66;;;11.43;100.00
32324;BME280;25666;44.350;9.222;2024-02-26T00:12:08;100736.88;;;11.43;100.00
32324;BME280;25666;44.350;9.222;2024-02-26T00:14:34;100728.53;;;11.43;100.00
32324;BME280;25666;44.350;9.222;2024-02-26T00:16:59;100727.50;;;11.36;100.00
32324;BME280;25666;44.350;9.222;2024-02-26T00:19:25;100727.06;;;11.34;100.00
32324;BME280;25666;44.350;9.222;2024-02-26T00:21:51;100719.13;;;11.36;100.00
32324;BME280;25666;44.350;9.222;2024-02-26T00:24:19;100723.19;;;11.38;100.00
32324;BME280;25666;44.350;9.222;2024-02-26T00:26:44;100718.59;;;11.30;100.00
32324;BME280;25666;44.350;9.222;2024-02-26T00:29:10;100721.13;;;11.35;100.00
32324;BME280;25666;44.350;9.222;2024-02-26T00:31:36;100718.59;;;11.30;100.00
32324;BME280;25666;44.350;9.222;2024-02-26T00:34:03;100717.50;;;11.35;100.00
32324;BME280;25666;44.350;9.222;2024-02-26T00:36:29;100718.59;;;11.30;100.00
32324;BME280;25666;44.350;9.222;2024-02-26T00:38:54;100721.22;;;11.39;100.00
32324;BME280;25666;44.350;9.222;2024-02-26T00:41:20;100720.19;;;11.31;100.00
32324;BME280;25666;44.350;9.222;2024-02-26T00:43:46;100721.66;;;11.41;100.00
32324;BME280;25666;44.350;9.222;2024-02-26T00:46:12;100727.13;;;11.37;100.00
32324;BME280;25666;44.350;9.222;2024-02-26T00:48:38;100727.84;;;11.34;100.00
32324;BME280;25666;44.350;9.222;2024-02-26T00:51:04;100723.09;;;11.35;100.00
32324;BME280;25666;44.350;9.222;2024-02-26T00:53:33;100717.88;;;11.33;100.00
32324;BME280;25666;44.350;9.222;2024-02-26T00:55:58;100708.34;;;11.34;100.00
32324;BME280;25666;44.350;9.222;2024-02-26T00:58:25;100698.00;;;11.35;100.00
32324;BME280;25666;44.350;9.222;2024-02-26T01:00:50;100700.63;;;11.27;100.00
32324;BME280;25666;44.350;9.222;2024-02-26T01:03:17;100691.16;;;11.32;100.00
32324;BME280;25666;44.350;9.222;2024-02-26T01:05:43;100686.50;;;11.36;100.00
32324;BME280;25666;44.350;9.222;2024-02-26T01:08:08;100681.75;;;11.37;100.00
32324;BME280;25666;44.350;9.222;2024-02-26T01:10:33;100669.78;;;11.36;100.00
32324;BME280;25666;44.350;9.222;2024-02-26T01:12:59;100672.09;;;11.34;100.00
32324;BME280;25666;44.350;9.222;2024-02-26T01:15:25;100663.03;;;11.37;100.00
32324;BME280;25666;44.350;9.222;2024-02-26T01:17:51;100663.94;;;11.41;100.00
32324;BME280;25666;44.350;9.222;2024-02-26T01:20:17;100667.00;;;11.36;100.00
32324;BME280;25666;44.350;9.222;2024-02-26T01:22:43;100658.19;;;11.34;100.00
32324;BME280;25666;44.350;9.222;2024-02-26T01:25:09;100668.59;;;11.37;100.00
32324;BME280;25666;44.350;9.222;2024-02-26T01:27:36;100647.50;;;11.36;100.00
32324;BME280;25666;44.350;9.222;2024-02-26T01:30:05;100649.47;;;11.36;100.00
32324;BME280;25666;44.350;9.222;2024-02-26T01:32:31;100635.00;;;11.46;100.00
32324;BME280;25666;44.350;9.222;2024-02-26T01:34:57;100633.28;;;11.41;100.00
32324;BME280;25666;44.350;9.222;2024-02-26T01:37:23;100634.09;;;11.42;100.00
32324;BME280;25666;44.350;9.222;2024-02-26T01:39:48;100637.81;;;11.46;100.00
32324;BME280;25666;44.350;9.222;2024-02-26T01:42:14;100629.69;;;11.41;100.00
32324;BME280;25666;44.350;9.222;2024-02-26T01:44:40;100621.91;;;11.46;100.00
32324;BME280;25666;44.350;9.222;2024-02-26T01:47:07;100622.53;;;11.40;100.00
32324;BME280;25666;44.350;9.222;2024-02-26T01:49:34;100632.47;;;11.41;100.00
32324;BME280;25666;44.350;9.222;2024-02-26T01:52:01;100623.78;;;11.42;100.00
32324;BME280;25666;44.350;9.222;2024-02-26T01:54:29;100620.78;;;11.35;100.00
32324;BME280;25666;44.350;9.222;2024-02-26T01:56:55;100620.06;;;11.38;100.00
32324;BME280;25666;44.350;9.222;2024-02-26T01:59:20;100613.69;;;11.38;100.00
32324;BME280;25666;44.350;9.222;2024-02-26T02:01:48;100604.16;;;11.39;100.00
32324;BME280;25666;44.350;9.222;2024-02-26T02:04:18;100597.06;;;11.41;100.00
32324;BME280;25666;44.350;9.222;2024-02-26T02:06:45;100594.75;;;11.43;100.00
32324;BME280;25666;44.350;9.222;2024-02-26T02:09:11;100592.69;;;11.40;100.00
32324;BME280;25666;44.350;9.222;2024-02-26T02:11:37;100593.38;;;11.37;100.00
32324;BME280;25666;44.350;9.222;2024-02-26T02:14:03;100587.34;;;11.35;100.00
32324;BME280;25666;44.350;9.222;2024-02-26T02:16:29;100595.81;;;11.39;100.00
32324;BME280;25666;44.350;9.222;2024-02-26T02:18:54;100591.03;;;11.39;100.00
32324;BME280;25666;44.350;9.222;2024-02-26T02:21:20;100597.34;;;11.36;100.00
32324;BME280;25666;44.350;9.222;2024-02-26T02:23:45;100597.78;;;11.22;100.00
32324;BME280;25666;44.350;9.222;2024-02-26T02:26:15;100594.00;;;11.15;100.00
32324;BME280;25666;44.350;9.222;2024-02-26T02:28:41;100583.75;;;11.19;100.00
32324;BME280;25666;44.350;9.222;2024-02-26T02:31:07;100576.09;;;11.16;100.00
32324;BME280;25666;44.350;9.222;2024-02-26T02:33:34;100565.88;;;11.20;100.00
32324;BME280;25666;44.350;9.222;2024-02-26T02:36:00;100562.66;;;11.18;100.00
32324;BME280;25666;44.350;9.222;2024-02-26T02:38:25;100560.31;;;11.20;100.00
32324;BME280;25666;44.350;9.222;2024-02-26T02:40:52;100551.94;;;11.20;100.00
32324;BME280;25666;44.350;9.222;2024-02-26T02:43:17;100555.72;;;11.27;100.00
32324;BME280;25666;44.350;9.222;2024-02-26T02:45:43;100552.56;;;11.29;100.00
32324;BME280;25666;44.350;9.222;2024-02-26T02:48:10;100547.91;;;11.33;100.00
32324;BME280;25666;44.350;9.222;2024-02-26T02:50:35;100543.06;;;11.30;100.00
32324;BME280;25666;44.350;9.222;2024-02-26T02:53:01;100535.56;;;11.34;100.00
32324;BME280;25666;44.350;9.222;2024-02-26T02:55:27;100541.13;;;11.34;100.00
32324;BME280;25666;44.350;9.222;2024-02-26T02:57:53;100540.16;;;11.42;100.00
32324;BME280;25666;44.350;9.222;2024-02-26T03:00:19;100538.81;;;11.36;100.00
32324;BME280;25666;44.350;9.222;2024-02-26T03:02:44;100536.47;;;11.38;100.00
32324;BME280;25666;44.350;9.222;2024-02-26T03:05:11;100541.06;;;11.46;100.00
32324;BME280;25666;44.350;9.222;2024-02-26T03:07:37;100537.00;;;11.44;100.00
32324;BME280;25666;44.350;9.222;2024-02-26T03:10:03;100539.44;;;11.45;100.00
32324;BME280;25666;44.350;9.222;2024-02-26T03:12:30;100535.84;;;11.45;100.00
32324;BME280;25666;44.350;9.222;2024-02-26T03:14:56;100542.94;;;11.42;100.00
32324;BME280;25666;44.350;9.222;2024-02-26T03:17:22;100538.53;;;11.41;100.00
32324;BME280;25666;44.350;9.222;2024-02-26T03:19:49;100537.28;;;11.39;100.00
32324;BME280;25666;44.350;9.222;2024-02-26T03:22:18;100541.78;;;11.43;100.00
32324;BME280;25666;44.350;9.222;2024-02-26T03:24:44;100541.59;;;11.36;100.00
32324;BME280;25666;44.350;9.222;2024-02-26T03:27:10;100542.13;;;11.42;100.00
32324;BME280;25666;44.350;9.222;2024-02-26T03:29:37;100537.81;;;11.44;100.00
32324;BME280;25666;44.350;9.222;2024-02-26T03:32:02;100533.44;;;11.43;100.00
32324;BME280;25666;44.350;9.222;2024-02-26T03:34:28;100526.13;;;11.39;100.00
32324;BME280;25666;44.350;9.222;2024-02-26T03:36:54;100526.94;;;11.39;100.00
32324;BME280;25666;44.350;9.222;2024-02-26T03:39:19;100516.06;;;11.34;100.00
32324;BME280;25666;44.350;9.222;2024-02-26T03:41:45;100527.22;;;11.34;100.00
32324;BME280;25666;44.350;9.222;2024-02-26T03:44:10;100511.69;;;11.33;100.00
32324;BME280;25666;44.350;9.222;2024-02-26T03:46:37;100507.28;;;11.32;100.00
32324;BME280;25666;44.350;9.222;2024-02-26T03:49:02;100498.56;;;11.34;100.00
32324;BME280;25666;44.350;9.222;2024-02-26T03:51:28;100499.72;;;11.33;100.00
32324;BME280;25666;44.350;9.222;2024-02-26T03:53:57;100491.38;;;11.33;100.00
32324;BME280;25666;44.350;9.222;2024-02-26T03:56:24;100498.09;;;11.32;100.00
32324;BME280;25666;44.350;9.222;2024-02-26T03:58:49;100502.06;;;11.31;100.00
32324;BME280;25666;44.350;9.222;2024-02-26T04:01:15;100501.25;;;11.30;100.00
32324;BME280;25666;44.350;9.222;2024-02-26T04:03:40;100501.97;;;11.27;100.00
32324;BME280;25666;44.350;9.222;2024-02-26T04:06:08;100516.44;;;11.33;100.00
32324;BME280;25666;44.350;9.222;2024-02-26T04:08:36;100508.91;;;11.33;100.00
32324;BME280;25666;44.350;9.222;2024-02-26T04:11:02;100504.78;;;11.27;100.00
32324;BME280;25666;44.350;9.222;2024-02-26T04:13:32;100507.66;;;11.31;100.00
32324;BME280;25666;44.350;9.222;2024-02-26T04:15:58;100492.09;;;11.29;100.00
32324;BME280;25666;44.350;9.222;2024-02-26T04:18:26;100498.09;;;11.16;100.00
32324;BME280;25666;44.350;9.222;2024-02-26T04:20:52;100489.50;;;11.21;100.00
32324;BME280;25666;44.350;9.222;2024-02-26T04:23:17;100490.47;;;11.13;100.00
32324;BME280;25666;44.350;9.222;2024-02-26T04:25:43;100486.09;;;11.12;100.00
32324;BME280;25666;44.350;9.222;2024-02-26T04:28:09;100482.59;;;11.15;100.00
32324;BME280;25666;44.350;9.222;2024-02-26T04:30:34;100479.78;;;11.15;100.00
32324;BME280;25666;44.350;9.222;2024-02-26T04:33:00;100491.09;;;11.22;100.00
32324;BME280;25666;44.350;9.222;2024-02-26T04:35:25;100483.63;;;11.26;100.00
32324;BME280;25666;44.350;9.222;2024-02-26T04:37:51;100486.44;;;11.26;100.00
32324;BME280;25666;44.350;9.222;2024-02-26T04:40:16;100477.44;;;11.33;100.00
32324;BME280;25666;44.350;9.222;2024-02-26T04:42:42;100478.16;;;11.29;100.00
32324;BME280;25666;44.350;9.222;2024-02-26T04:45:08;100469.78;;;11.29;100.00
32324;BME280;25666;44.350;9.222;2024-02-26T04:47:33;100470.97;;;11.28;100.00
32324;BME280;25666;44.350;9.222;2024-02-26T04:49:59;100470.69;;;11.34;100.00
32324;BME280;25666;44.350;9.222;2024-02-26T04:52:25;100469.16;;;11.36;100.00
32324;BME280;25666;44.350;9.222;2024-02-26T04:54:51;100470.22;;;11.32;100.00
32324;BME280;25666;44.350;9.222;2024-02-26T04:57:16;100464.22;;;11.29;100.00
32324;BME280;25666;44.350;9.222;2024-02-26T04:59:44;100469.69;;;11.42;100.00
32324;BME280;25666;44.350;9.222;2024-02-26T05:02:11;100469.34;;;11.27;100.00
32324;BME280;25666;44.350;9.222;2024-02-26T05:04:37;100467.81;;;11.30;100.00
32324;BME280;25666;44.350;9.222;2024-02-26T05:07:03;100463.69;;;11.24;100.00
32324;BME280;25666;44.350;9.222;2024-02-26T05:09:29;100469.72;;;11.26;100.00
32324;BME280;25666;44.350;9.222;2024-02-26T05:11:54;100464.78;;;11.19;100.00
32324;BME280;25666;44.350;9.222;2024-02-26T05:14:20;100457.31;;;11.23;100.00
32324;BME280;25666;44.350;9.222;2024-02-26T05:16:47;100457.50;;;11.15;100.00
32324;BME280;25666;44.350;9.222;2024-02-26T05:19:12;100462.19;;;11.11;100.00
32324;BME280;25666;44.350;9.222;2024-02-26T05:21:38;100456.94;;;11.09;100.00
32324;BME280;25666;44.350;9.222;2024-02-26T05:24:04;100456.22;;;11.12;100.00
32324;BME280;25666;44.350;9.222;2024-02-26T05:26:29;100458.25;;;11.12;100.00
32324;BME280;25666;44.350;9.222;2024-02-26T05:28:55;100456.22;;;11.12;100.00
32324;BME280;25666;44.350;9.222;2024-02-26T05:31:25;100457.88;;;10.98;100.00
32324;BME280;25666;44.350;9.222;2024-02-26T05:33:51;100461.66;;;10.90;100.00
32324;BME280;25666;44.350;9.222;2024-02-26T05:36:21;100473.03;;;10.85;100.00
32324;BME280;25666;44.350;9.222;2024-02-26T05:38:48;100462.72;;;10.85;100.00
32324;BME280;25666;44.350;9.222;2024-02-26T05:41:17;100453.38;;;10.77;100.00
32324;BME280;25666;44.350;9.222;2024-02-26T05:43:51;100456.44;;;10.72;100.00
32324;BME280;25666;44.350;9.222;2024-02-26T05:46:20;100446.44;;;10.71;100.00
32324;BME280;25666;44.350;9.222;2024-02-26T05:48:47;100446.00;;;10.69;100.00
32324;BME280;25666;44.350;9.222;2024-02-26T05:51:13;100448.16;;;10.60;100.00
32324;BME280;25666;44.350;9.222;2024-02-26T05:53:40;100446.63;;;10.63;100.00
32324;BME280;25666;44.350;9.222;2024-02-26T05:56:06;100447.72;;;10.58;100.00
32324;BME280;25666;44.350;9.222;2024-02-26T05:58:32;100442.59;;;10.60;100.00
32324;BME280;25666;44.350;9.222;2024-02-26T06:00:57;100448.59;;;10.62;100.00
32324;BME280;25666;44.350;9.222;2024-02-26T06:03:23;100439.19;;;10.67;100.00
32324;BME280;25666;44.350;9.222;2024-02-26T06:05:48;100441.53;;;10.65;100.00
32324;BME280;25666;44.350;9.222;2024-02-26T06:08:14;100438.75;;;10.65;100.00
32324;BME280;25666;44.350;9.222;2024-02-26T06:10:39;100436.41;;;10.67;100.00
32324;BME280;25666;44.350;9.222;2024-02-26T06:13:05;100439.19;;;10.67;100.00
32324;BME280;25666;44.350;9.222;2024-02-26T06:15:30;100439.19;;;10.67;100.00
32324;BME280;25666;44.350;9.222;2024-02-26T06:17:56;100445.72;;;10.74;100.00
32324;BME280;25666;44.350;9.222;2024-02-26T06:20:21;100438.38;;;10.82;100.00
32324;BME280;25666;44.350;9.222;2024-02-26T06:22:47;100430.94;;;10.70;100.00
32324;BME280;25666;44.350;9.222;2024-02-26T06:25:12;100422.84;;;10.65;100.00
32324;BME280;25666;44.350;9.222;2024-02-26T06:27:38;100426.72;;;10.77;100.00
32324;BME280;25666;44.350;9.222;2024-02-26T06:30:04;100417.66;;;10.64;100.00
32324;BME280;25666;44.350;9.222;2024-02-26T06:32:30;100422.31;;;10.60;100.00
32324;BME280;25666;44.350;9.222;2024-02-26T06:34:55;100428.25;;;10.58;100.00
32324;BME280;25666;44.350;9.222;2024-02-26T06:37:21;100421.56;;;10.47;100.00
32324;BME280;25666;44.350;9.222;2024-02-26T06:39:47;100427.69;;;10.53;100.00
32324;BME280;25666;44.350;9.222;2024-02-26T06:42:13;100430.66;;;10.60;100.00
32324;BME280;25666;44.350;9.222;2024-02-26T06:44:39;100424.03;;;10.64;100.00
32324;BME280;25666;44.350;9.222;2024-02-26T06:47:05;100431.56;;;10.64;100.00
32324;BME280;25666;44.350;9.222;2024-02-26T06:49:31;100432.47;;;10.68;100.00
32324;BME280;25666;44.350;9.222;2024-02-26T06:51:56;100438.19;;;10.59;100.00
32324;BME280;25666;44.350;9.222;2024-02-26T06:54:22;100420.31;;;10.45;100.00
32324;BME280;25666;44.350;9.222;2024-02-26T06:56:48;100426.88;;;10.52;100.00
32324;BME280;25666;44.350;9.222;2024-02-26T06:59:13;100438.53;;;10.42;100.00
32324;BME280;25666;44.350;9.222;2024-02-26T07:01:42;100439.63;;;10.53;100.00
32324;BME280;25666;44.350;9.222;2024-02-26T07:04:07;100425.03;;;10.29;100.00
32324;BME280;25666;44.350;9.222;2024-02-26T07:06:34;100423.88;;;10.30;100.00
32324;BME280;25666;44.350;9.222;2024-02-26T07:08:59;100416.91;;;10.36;100.00
32324;BME280;25666;44.350;9.222;2024-02-26T07:11:25;100421.38;;;10.40;100.00
32324;BME280;25666;44.350;9.222;2024-02-26T07:13:50;100419.41;;;10.41;100.00
32324;BME280;25666;44.350;9.222;2024-02-26T07:16:16;100424.34;;;10.47;100.00
32324;BME280;25666;44.350;9.222;2024-02-26T07:18:42;100428.25;;;10.58;100.00
32324;BME280;25666;44.350;9.222;2024-02-26T07:21:09;100427.94;;;10.48;100.00
32324;BME280;25666;44.350;9.222;2024-02-26T07:23:34;100422.72;;;10.46;100.00
32324;BME280;25666;44.350;9.222;2024-02-26T07:26:00;100426.63;;;10.14;100.00
32324;BME280;25666;44.350;9.222;2024-02-26T07:28:25;100417.59;;;10.17;100.00
32324;BME280;25666;44.350;9.222;2024-02-26T07:30:51;100418.94;;;10.23;100.00
32324;BME280;25666;44.350;9.222;2024-02-26T07:33:17;100423.34;;;10.24;100.00
32324;BME280;25666;44.350;9.222;2024-02-26T07:35:42;100425.97;;;10.33;100.00
32324;BME280;25666;44.350;9.222;2024-02-26T07:38:08;100428.09;;;10.24;100.00
32324;BME280;25666;44.350;9.222;2024-02-26T07:40:33;100431.53;;;10.33;100.00
32324;BME280;25666;44.350;9.222;2024-02-26T07:42:59;100442.81;;;10.24;100.00
32324;BME280;25666;44.350;9.222;2024-02-26T07:45:24;100433.47;;;10.16;100.00
32324;BME280;25666;44.350;9.222;2024-02-26T07:47:50;100426.78;;;10.05;100.00
32324;BME280;25666;44.350;9.222;2024-02-26T07:50:17;100426.94;;;10.12;100.00
32324;BME280;25666;44.350;9.222;2024-02-26T07:52:44;100424.53;;;10.11;100.00
32324;BME280;25666;44.350;9.222;2024-02-26T07:55:10;100415.44;;;10.26;100.00
32324;BME280;25666;44.350;9.222;2024-02-26T07:57:36;100419.19;;;10.18;100.00
32324;BME280;25666;44.350;9.222;2024-02-26T08:00:02;100419.56;;;10.16;100.00
32324;BME280;25666;44.350;9.222;2024-02-26T08:02:30;100410.31;;;10.28;100.00
32324;BME280;25666;44.350;9.222;2024-02-26T08:04:55;100408.13;;;10.34;100.00
32324;BME280;25666;44.350;9.222;2024-02-26T08:07:21;100410.59;;;9.95;100.00
32324;BME280;25666;44.350;9.222;2024-02-26T08:09:47;100402.41;;;10.14;100.00
32324;BME280;25666;44.350;9.222;2024-02-26T08:12:13;100401.09;;;10.12;100.00
32324;BME280;25666;44.350;9.222;2024-02-26T08:14:39;100396.03;;;10.14;100.00
32324;BME280;25666;44.350;9.222;2024-02-26T08:17:05;100386.41;;;10.11;100.00
32324;BME280;25666;44.350;9.222;2024-02-26T08:19:30;100381.63;;;10.24;100.00
32324;BME280;25666;44.350;9.222;2024-02-26T08:21:56;100375.88;;;10.17;100.00
32324;BME280;25666;44.350;9.222;2024-02-26T08:24:22;100387.69;;;10.14;100.00
32324;BME280;25666;44.350;9.222;2024-02-26T08:26:48;100388.72;;;10.09;100.00
32324;BME280;25666;44.350;9.222;2024-02-26T08:29:14;100373.03;;;10.01;100.00
32324;BME280;25666;44.350;9.222;2024-02-26T08:31:39;100369.94;;;10.18;100.00
32324;BME280;25666;44.350;9.222;2024-02-26T08:34:05;100373.09;;;10.17;100.00
32324;BME280;25666;44.350;9.222;2024-02-26T08:36:32;100367.88;;;10.15;100.00
32324;BME280;25666;44.350;9.222;2024-02-26T08:38:58;100370.50;;;10.24;100.00
32324;BME280;25666;44.350;9.222;2024-02-26T08:41:24;100368.88;;;10.23;100.00
32324;BME280;25666;44.350;9.222;2024-02-26T08:43:49;100369.00;;;9.99;100.00
32324;BME280;25666;44.350;9.222;2024-02-26T08:46:15;100364.03;;;10.20;100.00
32324;BME280;25666;44.350;9.222;2024-02-26T08:48:40;100368.16;;;10.26;100.00
32324;BME280;25666;44.350;9.222;2024-02-26T08:51:07;100373.72;;;10.26;100.00
32324;BME280;25666;44.350;9.222;2024-02-26T08:53:33;100365.28;;;10.23;100.00
32324;BME280;25666;44.350;9.222;2024-02-26T08:55:59;100355.94;;;10.15;100.00
32324;BME280;25666;44.350;9.222;2024-02-26T08:58:24;100353.81;;;10.12;100.00
32324;BME280;25666;44.350;9.222;2024-02-26T09:00:50;100354.44;;;10.17;100.00
32324;BME280;25666;44.350;9.222;2024-02-26T09:03:16;100351.84;;;9.97;100.00
32324;BME280;25666;44.350;9.222;2024-02-26T09:05:41;100364.13;;;9.68;100.00
32324;BME280;25666;44.350;9.222;2024-02-26T09:08:07;100362.25;;;9.72;100.00
32324;BME280;25666;44.350;9.222;2024-02-26T09:10:32;100364.66;;;9.86;100.00
32324;BME280;25666;44.350;9.222;2024-02-26T09:12:58;100364.97;;;9.84;100.00
32324;BME280;25666;44.350;9.222;2024-02-26T09:15:24;100359.78;;;9.83;100.00
32324;BME280;25666;44.350;9.222;2024-02-26T09:17:49;100352.00;;;9.88;100.00
32324;BME280;25666;44.350;9.222;2024-02-26T09:20:16;100343.13;;;9.83;100.00
32324;BME280;25666;44.350;9.222;2024-02-26T09:22:46;100346.59;;;9.80;100.00
32324;BME280;25666;44.350;9.222;2024-02-26T09:25:12;100336.06;;;9.57;100.00
32324;BME280;25666;44.350;9.222;2024-02-26T09:27:38;100333.44;;;9.77;100.00
32324;BME280;25666;44.350;9.222;2024-02-26T09:30:04;100332.16;;;9.74;100.00
32324;BME280;25666;44.350;9.222;2024-02-26T09:32:30;100333.75;;;9.75;100.00
32324;BME280;25666;44.350;9.222;2024-02-26T09:34:56;100326.69;;;9.78;100.00
32324;BME280;25666;44.350;9.222;2024-02-26T09:37:21;100319.34;;;9.85;100.00
32324;BME280;25666;44.350;9.222;2024-02-26T09:39:47;100332.88;;;9.87;100.00
32324;BME280;25666;44.350;9.222;2024-02-26T09:42:13;100330.66;;;9.77;100.00
32324;BME280;25666;44.350;9.222;2024-02-26T09:44:40;100330.81;;;9.84;100.00
32324;BME280;25666;44.350;9.222;2024-02-26T09:47:09;100334.72;;;9.95;100.00
32324;BME280;25666;44.350;9.222;2024-02-26T09:49:36;100336.94;;;9.89;100.00
32324;BME280;25666;44.350;9.222;2024-02-26T09:52:04;100339.47;;;9.94;100.00
32324;BME280;25666;44.350;9.222;2024-02-26T09:54:31;100334.81;;;9.98;100.00
32324;BME280;25666;44.350;9.222;2024-02-26T09:57:02;100333.34;;;9.89;100.00
32324;BME280;25666;44.350;9.222;2024-02-26T09:59:29;100319.91;;;9.91;100.00
32324;BME280;25666;44.350;9.222;2024-02-26T10:02:01;100320.38;;;9.93;100.00
32324;BME280;25666;44.350;9.222;2024-02-26T10:04:28;100300.72;;;9.86;100.00
32324;BME280;25666;44.350;9.222;2024-02-26T10:06:54;100286.59;;;9.63;100.00
32324;BME280;25666;44.350;9.222;2024-02-26T10:09:20;100273.72;;;9.71;100.00
32324;BME280;25666;44.350;9.222;2024-02-26T10:11:47;100261.16;;;9.77;100.00
32324;BME280;25666;44.350;9.222;2024-02-26T10:14:14;100260.00;;;9.93;100.00
32324;BME280;25666;44.350;9.222;2024-02-26T10:16:41;100256.44;;;10.08;100.00
32324;BME280;25666;44.350;9.222;2024-02-26T10:19:07;100243.91;;;10.14;100.00
32324;BME280;25666;44.350;9.222;2024-02-26T10:21:32;100244.69;;;10.31;100.00
32324;BME280;25666;44.350;9.222;2024-02-26T10:23:58;100247.09;;;10.32;100.00
32324;BME280;25666;44.350;9.222;2024-02-26T10:26:23;100259.75;;;10.45;100.00
32324;BME280;25666;44.350;9.222;2024-02-26T10:28:49;100243.50;;;10.47;100.00
32324;BME280;25666;44.350;9.222;2024-02-26T10:31:15;100255.53;;;10.51;100.00
32324;BME280;25666;44.350;9.222;2024-02-26T10:33:42;100264.09;;;10.62;100.00
32324;BME280;25666;44.350;9.222;2024-02-26T10:36:08;100265.56;;;10.56;100.00
32324;BME280;25666;44.350;9.222;2024-02-26T10:38:35;100251.13;;;10.50;100.00
32324;BME280;25666;44.350;9.222;2024-02-26T10:41:13;100249.34;;;10.42;100.00
32324;BME280;25666;44.350;9.222;2024-02-26T10:43:38;100240.81;;;10.51;100.00
32324;BME280;25666;44.350;9.222;2024-02-26T10:46:04;100248.00;;;10.52;100.00
32324;BME280;25666;44.350;9.222;2024-02-26T10:48:30;100267.19;;;10.57;100.00
32324;BME280;25666;44.350;9.222;2024-02-26T10:50:56;100262.03;;;10.59;100.00
32324;BME280;25666;44.350;9.222;2024-02-26T10:53:23;100262.34;;;10.54;100.00
32324;BME280;25666;44.350;9.222;2024-02-26T10:56:10;100260.91;;;10.44;100.00
32324;BME280;25666;44.350;9.222;2024-02-26T10:58:37;100271.94;;;10.41;100.00
32324;BME280;25666;44.350;9.222;2024-02-26T11:01:04;100276.16;;;10.03;100.00
32324;BME280;25666;44.350;9.222;2024-02-26T11:03:31;100275.38;;;10.18;100.00
32324;BME280;25666;44.350;9.222;2024-02-26T11:06:01;100269.38;;;10.32;100.00
32324;BME280;25666;44.350;9.222;2024-02-26T11:08:28;100251.06;;;10.15;100.00
32324;BME280;25666;44.350;9.222;2024-02-26T11:10:55;100241.91;;;10.15;100.00
32324;BME280;25666;44.350;9.222;2024-02-26T11:13:21;100244.78;;;10.18;100.00
32324;BME280;25666;44.350;9.222;2024-02-26T11:15:50;100246.84;;;10.21;100.00
32324;BME280;25666;44.350;9.222;2024-02-26T11:18:18;100239.22;;;10.18;100.00
32324;BME280;25666;44.350;9.222;2024-02-26T11:20:45;100225.13;;;10.11;100.00
32324;BME280;25666;44.350;9.222;2024-02-26T11:23:11;100224.66;;;10.09;100.00
32324;BME280;25666;44.350;9.222;2024-02-26T11:25:37;100205.09;;;10.06;100.00
32324;BME280;25666;44.350;9.222;2024-02-26T11:28:07;100201.25;;;10.10;100.00
32324;BME280;25666;44.350;9.222;2024-02-26T11:30:36;100208.69;;;10.06;100.00
32324;BME280;25666;44.350;9.222;2024-02-26T11:33:09;100202.06;;;10.11;100.00
32324;BME280;25666;44.350;9.222;2024-02-26T11:35:38;100198.28;;;10.03;100.00
32324;BME280;25666;44.350;9.222;2024-02-26T11:38:04;100193.91;;;10.02;100.00
32324;BME280;25666;44.350;9.222;2024-02-26T11:40:33;100189.22;;;10.06;100.00
32324;BME280;25666;44.350;9.222;2024-02-26T11:43:03;100189.44;;;10.13;100.00
32324;BME280;25666;44.350;9.222;2024-02-26T11:48:24;100184.41;;;10.19;100.00
32324;BME280;25666;44.350;9.222;2024-02-26T11:50:52;100189.34;;;10.26;100.00
32324;BME280;25666;44.350;9.222;2024-02-26T11:53:30;100196.34;;;10.19;100.00
32324;BME280;25666;44.350;9.222;2024-02-26T11:58:45;100194.78;;;10.06;100.00
32324;BME280;25666;44.350;9.222;2024-02-26T12:04:02;100220.09;;;10.01;100.00
32324;BME280;25666;44.350;9.222;2024-02-26T12:06:27;100223.59;;;9.98;100.00
32324;BME280;25666;44.350;9.222;2024-02-26T12:08:55;100209.88;;;10.05;100.00
32324;BME280;25666;44.350;9.222;2024-02-26T12:11:21;100192.56;;;9.96;100.00
32324;BME280;25666;44.350;9.222;2024-02-26T12:13:47;100186.13;;;9.92;100.00
32324;BME280;25666;44.350;9.222;2024-02-26T12:16:35;100178.84;;;9.88;100.00
32324;BME280;25666;44.350;9.222;2024-02-26T12:19:04;100195.31;;;9.65;100.00
32324;BME280;25666;44.350;9.222;2024-02-26T12:21:30;100192.81;;;9.44;100.00
32324;BME280;25666;44.350;9.222;2024-02-26T12:23:55;100208.22;;;9.42;100.00
32324;BME280;25666;44.350;9.222;2024-02-26T12:26:21;100196.63;;;9.40;100.00
32324;BME280;25666;44.350;9.222;2024-02-26T12:28:47;100172.50;;;9.12;100.00
32324;BME280;25666;44.350;9.222;2024-02-26T12:31:12;100183.88;;;9.07;100.00
32324;BME280;25666;44.350;9.222;2024-02-26T12:33:39;100209.72;;;9.11;100.00
32324;BME280;25666;44.350;9.222;2024-02-26T12:36:05;100228.38;;;9.11;100.00
32324;BME280;25666;44.350;9.222;2024-02-26T12:38:31;100236.25;;;9.09;100.00
32324;BME280;25666;44.350;9.222;2024-02-26T12:40:56;100233.28;;;9.02;100.00
32324;BME280;25666;44.350;9.222;2024-02-26T12:43:22;100214.56;;;8.99;100.00
32324;BME280;25666;44.350;9.222;2024-02-26T12:45:48;100209.84;;;8.87;100.00